sensor_id;sensor_type;location;lat;lon;timestamp;P1;durP1;ratioP1;P2;durP2;ratioP2
4468;SDS011;2247;42.666;23.292;2022-11-15T00:01:08;73.47;;;37.40;;
4468;SDS011;2247;42.666;23.292;2022-11-15T00:03:39;72.17;;;36.40;;
4468;SDS011;2247;42.666;23.292;2022-11-15T00:06:06;66.73;;;32.80;;
4468;SDS011;2247;42.666;23.292;2022-11-15T00:08:33;62.47;;;33.90;;
4468;SDS011;2247;42.666;23.292;2022-11-15T00:11:02;68.37;;;35.07;;
4468;SDS011;2247;42.666;23.292;2022-11-15T00:13:31;56.77;;;32.50;;
4468;SDS011;2247;42.666;23.292;2022-11-15T00:15:58;56.77;;;31.20;;
4468;SDS011;2247;42.666;23.292;2022-11-15T00:18:27;57.67;;;32.27;;
4468;SDS011;2247;42.666;23.292;2022-11-15T00:20:54;58.10;;;31.57;;
4468;SDS011;2247;42.666;23.292;2022-11-15T00:23:22;52.23;;;30.30;;
4468;SDS011;2247;42.666;23.292;2022-11-15T00:25:54;54.37;;;29.80;;
4468;SDS011;2247;42.666;23.292;2022-11-15T00:28:21;59.33;;;28.57;;
4468;SDS011;2247;42.666;23.292;2022-11-15T00:30:50;52.80;;;28.97;;
4468;SDS011;2247;42.666;23.292;2022-11-15T00:33:17;53.30;;;28.80;;
4468;SDS011;2247;42.666;23.292;2022-11-15T00:35:45;58.57;;;29.77;;
4468;SDS011;2247;42.666;23.292;2022-11-15T00:38:12;49.87;;;28.50;;
4468;SDS011;2247;42.666;23.292;2022-11-15T00:40:39;49.73;;;26.53;;
4468;SDS011;2247;42.666;23.292;2022-11-15T00:43:06;50.33;;;25.77;;
4468;SDS011;2247;42.666;23.292;2022-11-15T00:45:33;52.60;;;26.00;;
4468;SDS011;2247;42.666;23.292;2022-11-15T00:48:02;50.80;;;27.50;;
4468;SDS011;2247;42.666;23.292;2022-11-15T00:50:30;53.20;;;27.23;;
4468;SDS011;2247;42.666;23.292;2022-11-15T00:52:56;49.07;;;26.90;;
4468;SDS011;2247;42.666;23.292;2022-11-15T00:55:23;50.60;;;28.53;;
4468;SDS011;2247;42.666;23.292;2022-11-15T00:57:50;53.83;;;27.93;;
4468;SDS011;2247;42.666;23.292;2022-11-15T01:00:18;52.87;;;28.10;;
4468;SDS011;2247;42.666;23.292;2022-11-15T01:02:44;54.53;;;28.27;;
4468;SDS011;2247;42.666;23.292;2022-11-15T01:05:13;49.33;;;27.40;;
4468;SDS011;2247;42.666;23.292;2022-11-15T01:07:41;44.43;;;26.00;;
4468;SDS011;2247;42.666;23.292;2022-11-15T01:10:08;48.53;;;25.93;;
4468;SDS011;2247;42.666;23.292;2022-11-15T01:12:35;46.40;;;26.10;;
4468;SDS011;2247;42.666;23.292;2022-11-15T01:15:03;48.40;;;26.10;;
4468;SDS011;2247;42.666;23.292;2022-11-15T01:17:30;51.80;;;26.67;;
4468;SDS011;2247;42.666;23.292;2022-11-15T01:19:58;52.33;;;25.83;;
4468;SDS011;2247;42.666;23.292;2022-11-15T01:22:27;52.23;;;26.97;;
4468;SDS011;2247;42.666;23.292;2022-11-15T01:24:55;47.60;;;26.37;;
4468;SDS011;2247;42.666;23.292;2022-11-15T01:27:22;44.80;;;23.93;;
4468;SDS011;2247;42.666;23.292;2022-11-15T01:29:49;45.77;;;25.17;;
4468;SDS011;2247;42.666;23.292;2022-11-15T01:32:17;53.57;;;25.30;;
4468;SDS011;2247;42.666;23.292;2022-11-15T01:34:44;52.03;;;26.37;;
4468;SDS011;2247;42.666;23.292;2022-11-15T01:37:11;48.87;;;26.63;;
4468;SDS011;2247;42.666;23.292;2022-11-15T01:39:39;48.03;;;26.13;;
4468;SDS011;2247;42.666;23.292;2022-11-15T01:42:08;48.50;;;26.80;;
4468;SDS011;2247;42.666;23.292;2022-11-15T01:47:14;60.83;;;28.47;;
4468;SDS011;2247;42.666;23.292;2022-11-15T01:49:47;51.40;;;27.40;;
4468;SDS011;2247;42.666;23.292;2022-11-15T01:52:19;59.93;;;26.60;;
4468;SDS011;2247;42.666;23.292;2022-11-15T01:54:50;54.33;;;28.07;;
4468;SDS011;2247;42.666;23.292;2022-11-15T01:57:22;51.60;;;26.80;;
4468;SDS011;2247;42.666;23.292;2022-11-15T01:59:50;47.20;;;26.47;;
4468;SDS011;2247;42.666;23.292;2022-11-15T02:02:17;47.73;;;27.40;;
4468;SDS011;2247;42.666;23.292;2022-11-15T02:04:46;53.87;;;27.93;;
4468;SDS011;2247;42.666;23.292;2022-11-15T02:07:14;50.97;;;27.03;;
4468;SDS011;2247;42.666;23.292;2022-11-15T02:09:43;49.93;;;26.73;;
4468;SDS011;2247;42.666;23.292;2022-11-15T02:12:12;52.43;;;26.90;;
4468;SDS011;2247;42.666;23.292;2022-11-15T02:14:43;48.73;;;26.90;;
4468;SDS011;2247;42.666;23.292;2022-11-15T02:17:19;50.93;;;27.30;;
4468;SDS011;2247;42.666;23.292;2022-11-15T02:20:06;47.00;;;27.10;;
4468;SDS011;2247;42.666;23.292;2022-11-15T02:22:57;50.43;;;27.90;;
4468;SDS011;2247;42.666;23.292;2022-11-15T02:25:41;50.03;;;26.50;;
4468;SDS011;2247;42.666;23.292;2022-11-15T02:28:30;50.53;;;26.03;;
4468;SDS011;2247;42.666;23.292;2022-11-15T02:31:11;48.43;;;25.63;;
4468;SDS011;2247;42.666;23.292;2022-11-15T02:33:49;47.90;;;25.47;;
4468;SDS011;2247;42.666;23.292;2022-11-15T02:36:25;51.40;;;26.10;;
4468;SDS011;2247;42.666;23.292;2022-11-15T02:39:03;51.80;;;25.97;;
4468;SDS011;2247;42.666;23.292;2022-11-15T02:41:45;55.67;;;27.13;;
4468;SDS011;2247;42.666;23.292;2022-11-15T02:44:18;46.77;;;24.83;;
4468;SDS011;2247;42.666;23.292;2022-11-15T02:46:51;54.47;;;27.63;;
4468;SDS011;2247;42.666;23.292;2022-11-15T02:49:40;59.80;;;26.33;;
4468;SDS011;2247;42.666;23.292;2022-11-15T02:52:13;53.07;;;27.03;;
4468;SDS011;2247;42.666;23.292;2022-11-15T02:54:42;52.43;;;27.33;;
4468;SDS011;2247;42.666;23.292;2022-11-15T02:57:19;62.03;;;32.10;;
4468;SDS011;2247;42.666;23.292;2022-11-15T03:00:07;57.30;;;30.60;;
4468;SDS011;2247;42.666;23.292;2022-11-15T03:02:39;55.67;;;29.57;;
4468;SDS011;2247;42.666;23.292;2022-11-15T03:05:15;69.20;;;37.83;;
4468;SDS011;2247;42.666;23.292;2022-11-15T03:07:51;71.90;;;34.83;;
4468;SDS011;2247;42.666;23.292;2022-11-15T03:10:25;68.33;;;34.60;;
4468;SDS011;2247;42.666;23.292;2022-11-15T03:13:00;65.10;;;33.73;;
4468;SDS011;2247;42.666;23.292;2022-11-15T03:15:36;69.47;;;36.83;;
4468;SDS011;2247;42.666;23.292;2022-11-15T03:18:10;68.00;;;36.50;;
4468;SDS011;2247;42.666;23.292;2022-11-15T03:20:43;72.43;;;35.73;;
4468;SDS011;2247;42.666;23.292;2022-11-15T03:23:13;70.40;;;35.20;;
4468;SDS011;2247;42.666;23.292;2022-11-15T03:25:41;75.50;;;35.67;;
4468;SDS011;2247;42.666;23.292;2022-11-15T03:28:14;59.67;;;32.17;;
4468;SDS011;2247;42.666;23.292;2022-11-15T03:30:45;66.70;;;33.57;;
4468;SDS011;2247;42.666;23.292;2022-11-15T03:33:16;65.47;;;33.90;;
4468;SDS011;2247;42.666;23.292;2022-11-15T03:35:46;66.97;;;33.90;;
4468;SDS011;2247;42.666;23.292;2022-11-15T03:38:15;68.10;;;34.53;;
4468;SDS011;2247;42.666;23.292;2022-11-15T03:40:49;62.20;;;31.67;;
4468;SDS011;2247;42.666;23.292;2022-11-15T03:43:23;65.10;;;31.07;;
4468;SDS011;2247;42.666;23.292;2022-11-15T03:45:58;70.40;;;34.30;;
4468;SDS011;2247;42.666;23.292;2022-11-15T03:48:30;66.10;;;33.67;;
4468;SDS011;2247;42.666;23.292;2022-11-15T03:51:02;64.40;;;30.90;;
4468;SDS011;2247;42.666;23.292;2022-11-15T03:53:31;62.40;;;30.60;;
4468;SDS011;2247;42.666;23.292;2022-11-15T03:55:58;54.97;;;28.83;;
4468;SDS011;2247;42.666;23.292;2022-11-15T03:58:25;58.03;;;30.50;;
4468;SDS011;2247;42.666;23.292;2022-11-15T04:00:52;56.00;;;30.13;;
4468;SDS011;2247;42.666;23.292;2022-11-15T04:03:19;57.57;;;30.10;;
4468;SDS011;2247;42.666;23.292;2022-11-15T04:05:47;66.57;;;30.87;;
4468;SDS011;2247;42.666;23.292;2022-11-15T04:08:15;81.80;;;32.60;;
4468;SDS011;2247;42.666;23.292;2022-11-15T04:10:42;63.73;;;31.70;;
4468;SDS011;2247;42.666;23.292;2022-11-15T04:13:09;71.57;;;33.10;;
4468;SDS011;2247;42.666;23.292;2022-11-15T04:15:36;74.67;;;33.33;;
4468;SDS011;2247;42.666;23.292;2022-11-15T04:18:03;69.90;;;31.87;;
4468;SDS011;2247;42.666;23.292;2022-11-15T04:20:31;74.47;;;33.40;;
4468;SDS011;2247;42.666;23.292;2022-11-15T04:23:18;83.03;;;34.30;;
4468;SDS011;2247;42.666;23.292;2022-11-15T04:26:04;71.03;;;33.27;;
4468;SDS011;2247;42.666;23.292;2022-11-15T04:28:33;84.60;;;34.47;;
4468;SDS011;2247;42.666;23.292;2022-11-15T04:31:00;80.40;;;32.90;;
4468;SDS011;2247;42.666;23.292;2022-11-15T04:33:27;80.40;;;33.53;;
4468;SDS011;2247;42.666;23.292;2022-11-15T04:35:54;87.07;;;34.43;;
4468;SDS011;2247;42.666;23.292;2022-11-15T04:38:39;94.83;;;35.60;;
4468;SDS011;2247;42.666;23.292;2022-11-15T04:41:06;84.33;;;34.37;;
4468;SDS011;2247;42.666;23.292;2022-11-15T04:43:33;104.27;;;34.60;;
4468;SDS011;2247;42.666;23.292;2022-11-15T04:46:00;89.47;;;34.53;;
4468;SDS011;2247;42.666;23.292;2022-11-15T04:48:26;103.67;;;33.97;;
4468;SDS011;2247;42.666;23.292;2022-11-15T04:50:54;87.30;;;34.73;;
4468;SDS011;2247;42.666;23.292;2022-11-15T04:53:21;83.93;;;33.40;;
4468;SDS011;2247;42.666;23.292;2022-11-15T04:55:49;86.23;;;33.77;;
4468;SDS011;2247;42.666;23.292;2022-11-15T04:58:17;105.40;;;32.73;;
4468;SDS011;2247;42.666;23.292;2022-11-15T05:00:44;69.63;;;28.70;;
4468;SDS011;2247;42.666;23.292;2022-11-15T05:03:11;108.90;;;29.53;;
4468;SDS011;2247;42.666;23.292;2022-11-15T05:05:55;57.80;;;28.07;;
4468;SDS011;2247;42.666;23.292;2022-11-15T05:08:24;68.27;;;26.50;;
4468;SDS011;2247;42.666;23.292;2022-11-15T05:10:53;71.47;;;27.40;;
4468;SDS011;2247;42.666;23.292;2022-11-15T05:13:20;67.13;;;24.90;;
4468;SDS011;2247;42.666;23.292;2022-11-15T05:15:47;74.27;;;27.93;;
4468;SDS011;2247;42.666;23.292;2022-11-15T05:18:14;75.53;;;24.80;;
4468;SDS011;2247;42.666;23.292;2022-11-15T05:20:41;94.37;;;25.23;;
4468;SDS011;2247;42.666;23.292;2022-11-15T05:23:08;61.17;;;28.13;;
4468;SDS011;2247;42.666;23.292;2022-11-15T05:25:35;62.47;;;27.73;;
4468;SDS011;2247;42.666;23.292;2022-11-15T05:28:05;55.97;;;27.40;;
4468;SDS011;2247;42.666;23.292;2022-11-15T05:30:32;69.57;;;28.07;;
4468;SDS011;2247;42.666;23.292;2022-11-15T05:32:58;88.23;;;30.00;;
4468;SDS011;2247;42.666;23.292;2022-11-15T05:35:29;74.10;;;28.10;;
4468;SDS011;2247;42.666;23.292;2022-11-15T05:37:59;81.17;;;28.47;;
4468;SDS011;2247;42.666;23.292;2022-11-15T05:40:26;69.47;;;29.80;;
4468;SDS011;2247;42.666;23.292;2022-11-15T05:43:00;71.87;;;29.53;;
4468;SDS011;2247;42.666;23.292;2022-11-15T05:45:32;88.90;;;30.87;;
4468;SDS011;2247;42.666;23.292;2022-11-15T05:48:01;69.67;;;30.50;;
4468;SDS011;2247;42.666;23.292;2022-11-15T05:50:32;68.00;;;29.70;;
4468;SDS011;2247;42.666;23.292;2022-11-15T05:53:04;89.33;;;31.57;;
4468;SDS011;2247;42.666;23.292;2022-11-15T05:55:32;87.23;;;31.00;;
4468;SDS011;2247;42.666;23.292;2022-11-15T05:57:59;77.50;;;33.53;;
4468;SDS011;2247;42.666;23.292;2022-11-15T06:00:26;80.33;;;30.10;;
4468;SDS011;2247;42.666;23.292;2022-11-15T06:02:56;76.60;;;31.27;;
4468;SDS011;2247;42.666;23.292;2022-11-15T06:05:23;74.63;;;33.57;;
4468;SDS011;2247;42.666;23.292;2022-11-15T06:07:50;85.47;;;31.50;;
4468;SDS011;2247;42.666;23.292;2022-11-15T06:10:17;82.03;;;32.67;;
4468;SDS011;2247;42.666;23.292;2022-11-15T06:12:44;72.90;;;31.13;;
4468;SDS011;2247;42.666;23.292;2022-11-15T06:15:13;78.37;;;31.67;;
4468;SDS011;2247;42.666;23.292;2022-11-15T06:17:40;80.37;;;32.30;;
4468;SDS011;2247;42.666;23.292;2022-11-15T06:20:09;91.47;;;34.37;;
4468;SDS011;2247;42.666;23.292;2022-11-15T06:22:37;86.40;;;34.37;;
4468;SDS011;2247;42.666;23.292;2022-11-15T06:25:04;81.73;;;32.57;;
4468;SDS011;2247;42.666;23.292;2022-11-15T06:27:31;86.87;;;32.43;;
4468;SDS011;2247;42.666;23.292;2022-11-15T06:29:58;88.37;;;31.83;;
4468;SDS011;2247;42.666;23.292;2022-11-15T06:32:25;106.67;;;35.20;;
4468;SDS011;2247;42.666;23.292;2022-11-15T06:34:52;91.23;;;34.47;;
4468;SDS011;2247;42.666;23.292;2022-11-15T06:37:21;83.23;;;33.30;;
4468;SDS011;2247;42.666;23.292;2022-11-15T06:39:48;103.43;;;33.90;;
4468;SDS011;2247;42.666;23.292;2022-11-15T06:42:15;93.80;;;33.67;;
4468;SDS011;2247;42.666;23.292;2022-11-15T06:44:42;84.63;;;33.83;;
4468;SDS011;2247;42.666;23.292;2022-11-15T06:47:09;87.57;;;31.67;;
4468;SDS011;2247;42.666;23.292;2022-11-15T06:49:36;90.30;;;34.10;;
4468;SDS011;2247;42.666;23.292;2022-11-15T06:52:04;100.97;;;36.10;;
4468;SDS011;2247;42.666;23.292;2022-11-15T06:54:32;97.60;;;36.60;;
4468;SDS011;2247;42.666;23.292;2022-11-15T06:56:59;101.47;;;35.87;;
4468;SDS011;2247;42.666;23.292;2022-11-15T06:59:26;98.83;;;37.17;;
4468;SDS011;2247;42.666;23.292;2022-11-15T07:01:54;107.03;;;37.80;;
4468;SDS011;2247;42.666;23.292;2022-11-15T07:04:20;126.00;;;41.90;;
4468;SDS011;2247;42.666;23.292;2022-11-15T07:06:47;94.00;;;37.90;;
4468;SDS011;2247;42.666;23.292;2022-11-15T07:09:14;118.90;;;39.20;;
4468;SDS011;2247;42.666;23.292;2022-11-15T07:11:44;108.10;;;38.70;;
4468;SDS011;2247;42.666;23.292;2022-11-15T07:14:11;101.17;;;38.07;;
4468;SDS011;2247;42.666;23.292;2022-11-15T07:16:38;101.53;;;37.00;;
4468;SDS011;2247;42.666;23.292;2022-11-15T07:19:05;97.50;;;37.13;;
4468;SDS011;2247;42.666;23.292;2022-11-15T07:21:32;95.67;;;39.10;;
4468;SDS011;2247;42.666;23.292;2022-11-15T07:23:59;105.10;;;40.20;;
4468;SDS011;2247;42.666;23.292;2022-11-15T07:26:26;107.33;;;40.20;;
4468;SDS011;2247;42.666;23.292;2022-11-15T07:28:55;92.47;;;39.93;;
4468;SDS011;2247;42.666;23.292;2022-11-15T07:31:22;106.40;;;40.57;;
4468;SDS011;2247;42.666;23.292;2022-11-15T07:33:49;101.27;;;41.87;;
4468;SDS011;2247;42.666;23.292;2022-11-15T07:36:16;100.77;;;41.73;;
4468;SDS011;2247;42.666;23.292;2022-11-15T07:38:43;108.33;;;42.73;;
4468;SDS011;2247;42.666;23.292;2022-11-15T07:41:10;110.57;;;41.80;;
4468;SDS011;2247;42.666;23.292;2022-11-15T07:43:37;115.20;;;43.60;;
4468;SDS011;2247;42.666;23.292;2022-11-15T07:46:08;111.60;;;43.53;;
4468;SDS011;2247;42.666;23.292;2022-11-15T07:48:35;104.20;;;42.63;;
4468;SDS011;2247;42.666;23.292;2022-11-15T07:51:04;102.37;;;42.53;;
4468;SDS011;2247;42.666;23.292;2022-11-15T07:53:31;100.67;;;41.47;;
4468;SDS011;2247;42.666;23.292;2022-11-15T07:55:58;107.37;;;43.60;;
4468;SDS011;2247;42.666;23.292;2022-11-15T07:58:27;97.67;;;41.70;;
4468;SDS011;2247;42.666;23.292;2022-11-15T08:00:55;111.27;;;43.00;;
4468;SDS011;2247;42.666;23.292;2022-11-15T08:03:23;111.93;;;44.90;;
4468;SDS011;2247;42.666;23.292;2022-11-15T08:05:51;103.07;;;43.40;;
4468;SDS011;2247;42.666;23.292;2022-11-15T08:08:18;115.40;;;45.20;;
4468;SDS011;2247;42.666;23.292;2022-11-15T08:10:45;114.17;;;47.10;;
4468;SDS011;2247;42.666;23.292;2022-11-15T08:13:12;117.73;;;48.40;;
4468;SDS011;2247;42.666;23.292;2022-11-15T08:15:41;105.33;;;43.73;;
4468;SDS011;2247;42.666;23.292;2022-11-15T08:18:09;114.77;;;44.27;;
4468;SDS011;2247;42.666;23.292;2022-11-15T08:20:39;108.23;;;41.83;;
4468;SDS011;2247;42.666;23.292;2022-11-15T08:23:07;97.33;;;41.47;;
4468;SDS011;2247;42.666;23.292;2022-11-15T08:25:34;99.63;;;41.97;;
4468;SDS011;2247;42.666;23.292;2022-11-15T08:28:02;102.93;;;43.67;;
4468;SDS011;2247;42.666;23.292;2022-11-15T08:30:34;106.80;;;44.53;;
4468;SDS011;2247;42.666;23.292;2022-11-15T08:33:03;115.57;;;46.37;;
4468;SDS011;2247;42.666;23.292;2022-11-15T08:35:30;116.57;;;45.77;;
4468;SDS011;2247;42.666;23.292;2022-11-15T08:37:59;112.97;;;44.60;;
4468;SDS011;2247;42.666;23.292;2022-11-15T08:40:25;102.07;;;43.47;;
4468;SDS011;2247;42.666;23.292;2022-11-15T08:42:53;103.17;;;41.67;;
4468;SDS011;2247;42.666;23.292;2022-11-15T08:45:20;99.53;;;44.40;;
4468;SDS011;2247;42.666;23.292;2022-11-15T08:47:47;113.20;;;43.40;;
4468;SDS011;2247;42.666;23.292;2022-11-15T08:50:15;99.00;;;43.17;;
4468;SDS011;2247;42.666;23.292;2022-11-15T08:52:43;112.93;;;45.93;;
4468;SDS011;2247;42.666;23.292;2022-11-15T08:55:11;98.70;;;42.40;;
4468;SDS011;2247;42.666;23.292;2022-11-15T08:57:38;100.53;;;42.33;;
4468;SDS011;2247;42.666;23.292;2022-11-15T09:00:05;97.27;;;42.90;;
4468;SDS011;2247;42.666;23.292;2022-11-15T09:02:33;98.53;;;42.60;;
4468;SDS011;2247;42.666;23.292;2022-11-15T09:05:00;106.23;;;45.80;;
4468;SDS011;2247;42.666;23.292;2022-11-15T09:07:27;98.80;;;43.37;;
4468;SDS011;2247;42.666;23.292;2022-11-15T09:09:55;122.70;;;44.00;;
4468;SDS011;2247;42.666;23.292;2022-11-15T09:12:24;96.67;;;42.70;;
4468;SDS011;2247;42.666;23.292;2022-11-15T09:14:51;102.20;;;45.40;;
4468;SDS011;2247;42.666;23.292;2022-11-15T09:17:18;112.50;;;46.70;;
4468;SDS011;2247;42.666;23.292;2022-11-15T09:19:45;107.00;;;44.63;;
4468;SDS011;2247;42.666;23.292;2022-11-15T09:22:12;110.07;;;47.10;;
4468;SDS011;2247;42.666;23.292;2022-11-15T09:24:39;94.10;;;43.90;;
4468;SDS011;2247;42.666;23.292;2022-11-15T09:27:06;108.33;;;46.97;;
4468;SDS011;2247;42.666;23.292;2022-11-15T09:29:34;106.50;;;46.97;;
4468;SDS011;2247;42.666;23.292;2022-11-15T09:32:01;122.43;;;47.83;;
4468;SDS011;2247;42.666;23.292;2022-11-15T09:34:28;110.17;;;46.00;;
4468;SDS011;2247;42.666;23.292;2022-11-15T09:36:55;116.83;;;46.83;;
4468;SDS011;2247;42.666;23.292;2022-11-15T09:39:22;111.17;;;45.47;;
4468;SDS011;2247;42.666;23.292;2022-11-15T09:41:58;113.37;;;49.70;;
4468;SDS011;2247;42.666;23.292;2022-11-15T09:44:42;118.70;;;49.43;;
4468;SDS011;2247;42.666;23.292;2022-11-15T09:47:27;111.13;;;47.63;;
4468;SDS011;2247;42.666;23.292;2022-11-15T09:50:08;120.57;;;48.57;;
4468;SDS011;2247;42.666;23.292;2022-11-15T09:52:37;117.70;;;46.70;;
4468;SDS011;2247;42.666;23.292;2022-11-15T09:55:08;112.07;;;47.37;;
4468;SDS011;2247;42.666;23.292;2022-11-15T09:57:41;108.17;;;46.63;;
4468;SDS011;2247;42.666;23.292;2022-11-15T10:00:16;106.17;;;47.00;;
4468;SDS011;2247;42.666;23.292;2022-11-15T10:02:49;113.50;;;46.97;;
4468;SDS011;2247;42.666;23.292;2022-11-15T10:05:29;109.30;;;49.30;;
4468;SDS011;2247;42.666;23.292;2022-11-15T10:07:59;120.70;;;51.23;;
4468;SDS011;2247;42.666;23.292;2022-11-15T10:10:34;127.43;;;51.57;;
4468;SDS011;2247;42.666;23.292;2022-11-15T10:13:06;133.00;;;52.47;;
4468;SDS011;2247;42.666;23.292;2022-11-15T10:15:40;125.90;;;52.40;;
4468;SDS011;2247;42.666;23.292;2022-11-15T10:18:14;123.87;;;52.47;;
4468;SDS011;2247;42.666;23.292;2022-11-15T10:20:46;126.63;;;51.93;;
4468;SDS011;2247;42.666;23.292;2022-11-15T10:23:16;146.50;;;54.60;;
4468;SDS011;2247;42.666;23.292;2022-11-15T10:25:45;141.93;;;54.20;;
4468;SDS011;2247;42.666;23.292;2022-11-15T10:28:21;131.47;;;52.73;;
4468;SDS011;2247;42.666;23.292;2022-11-15T10:30:54;124.13;;;51.07;;
4468;SDS011;2247;42.666;23.292;2022-11-15T10:33:26;118.30;;;48.60;;
4468;SDS011;2247;42.666;23.292;2022-11-15T10:36:16;123.50;;;51.37;;
4468;SDS011;2247;42.666;23.292;2022-11-15T10:38:51;117.83;;;49.10;;
4468;SDS011;2247;42.666;23.292;2022-11-15T10:41:27;124.80;;;49.47;;
4468;SDS011;2247;42.666;23.292;2022-11-15T10:44:08;119.90;;;51.50;;
4468;SDS011;2247;42.666;23.292;2022-11-15T10:46:48;112.43;;;47.67;;
4468;SDS011;2247;42.666;23.292;2022-11-15T10:49:30;127.13;;;50.27;;
4468;SDS011;2247;42.666;23.292;2022-11-15T10:51:59;114.47;;;49.37;;
4468;SDS011;2247;42.666;23.292;2022-11-15T10:54:29;105.20;;;46.30;;
4468;SDS011;2247;42.666;23.292;2022-11-15T10:57:04;107.23;;;46.70;;
4468;SDS011;2247;42.666;23.292;2022-11-15T10:59:34;109.53;;;48.57;;
4468;SDS011;2247;42.666;23.292;2022-11-15T11:02:20;102.17;;;48.10;;
4468;SDS011;2247;42.666;23.292;2022-11-15T11:05:01;118.83;;;48.50;;
4468;SDS011;2247;42.666;23.292;2022-11-15T11:07:29;119.40;;;49.13;;
4468;SDS011;2247;42.666;23.292;2022-11-15T11:09:58;109.67;;;48.27;;
4468;SDS011;2247;42.666;23.292;2022-11-15T11:12:27;112.17;;;48.57;;
4468;SDS011;2247;42.666;23.292;2022-11-15T11:14:57;99.37;;;44.70;;
4468;SDS011;2247;42.666;23.292;2022-11-15T11:17:30;105.57;;;45.50;;
4468;SDS011;2247;42.666;23.292;2022-11-15T11:20:05;102.93;;;45.63;;
4468;SDS011;2247;42.666;23.292;2022-11-15T11:22:38;93.00;;;45.10;;
4468;SDS011;2247;42.666;23.292;2022-11-15T11:25:23;97.00;;;46.77;;
4468;SDS011;2247;42.666;23.292;2022-11-15T11:27:59;87.77;;;44.40;;
4468;SDS011;2247;42.666;23.292;2022-11-15T11:30:43;103.00;;;46.83;;
4468;SDS011;2247;42.666;23.292;2022-11-15T11:33:21;96.13;;;45.23;;
4468;SDS011;2247;42.666;23.292;2022-11-15T11:35:57;87.27;;;42.20;;
4468;SDS011;2247;42.666;23.292;2022-11-15T11:38:34;91.70;;;42.83;;
4468;SDS011;2247;42.666;23.292;2022-11-15T11:41:23;88.13;;;42.70;;
4468;SDS011;2247;42.666;23.292;2022-11-15T11:44:07;87.87;;;43.40;;
4468;SDS011;2247;42.666;23.292;2022-11-15T11:46:53;90.00;;;43.83;;
4468;SDS011;2247;42.666;23.292;2022-11-15T11:49:25;89.53;;;45.73;;
4468;SDS011;2247;42.666;23.292;2022-11-15T11:51:58;101.27;;;47.93;;
4468;SDS011;2247;42.666;23.292;2022-11-15T11:54:32;95.30;;;47.33;;
4468;SDS011;2247;42.666;23.292;2022-11-15T11:57:05;92.47;;;47.17;;
4468;SDS011;2247;42.666;23.292;2022-11-15T11:59:39;100.43;;;47.40;;
4468;SDS011;2247;42.666;23.292;2022-11-15T12:02:13;107.57;;;48.30;;
4468;SDS011;2247;42.666;23.292;2022-11-15T12:04:49;100.77;;;45.97;;
4468;SDS011;2247;42.666;23.292;2022-11-15T12:07:20;102.70;;;47.73;;
4468;SDS011;2247;42.666;23.292;2022-11-15T12:09:51;94.73;;;48.60;;
4468;SDS011;2247;42.666;23.292;2022-11-15T12:12:27;99.07;;;48.20;;
4468;SDS011;2247;42.666;23.292;2022-11-15T12:15:00;98.63;;;47.47;;
4468;SDS011;2247;42.666;23.292;2022-11-15T12:17:29;94.10;;;46.47;;
4468;SDS011;2247;42.666;23.292;2022-11-15T12:19:59;93.17;;;46.30;;
4468;SDS011;2247;42.666;23.292;2022-11-15T12:22:33;91.93;;;47.33;;
4468;SDS011;2247;42.666;23.292;2022-11-15T12:25:06;94.43;;;45.27;;
4468;SDS011;2247;42.666;23.292;2022-11-15T12:27:41;83.60;;;42.93;;
4468;SDS011;2247;42.666;23.292;2022-11-15T12:30:12;89.67;;;45.63;;
4468;SDS011;2247;42.666;23.292;2022-11-15T12:32:48;101.63;;;45.03;;
4468;SDS011;2247;42.666;23.292;2022-11-15T12:35:24;85.33;;;44.23;;
4468;SDS011;2247;42.666;23.292;2022-11-15T12:37:54;89.07;;;46.70;;
4468;SDS011;2247;42.666;23.292;2022-11-15T12:40:23;99.30;;;44.47;;
4468;SDS011;2247;42.666;23.292;2022-11-15T12:46:05;82.43;;;43.30;;
4468;SDS011;2247;42.666;23.292;2022-11-15T13:03:17;81.00;;;41.90;;
4468;SDS011;2247;42.666;23.292;2022-11-15T13:05:53;89.50;;;43.77;;
4468;SDS011;2247;42.666;23.292;2022-11-15T13:17:22;79.83;;;41.33;;
4468;SDS011;2247;42.666;23.292;2022-11-15T13:23:07;76.40;;;41.83;;
4468;SDS011;2247;42.666;23.292;2022-11-15T13:28:32;85.43;;;43.87;;
4468;SDS011;2247;42.666;23.292;2022-11-15T13:33:55;71.67;;;39.77;;
4468;SDS011;2247;42.666;23.292;2022-11-15T13:36:26;78.50;;;42.23;;
4468;SDS011;2247;42.666;23.292;2022-11-15T13:38:56;82.57;;;41.80;;
4468;SDS011;2247;42.666;23.292;2022-11-15T13:41:25;81.03;;;40.93;;
4468;SDS011;2247;42.666;23.292;2022-11-15T13:43:57;84.67;;;42.50;;
4468;SDS011;2247;42.666;23.292;2022-11-15T13:46:25;80.73;;;40.97;;
4468;SDS011;2247;42.666;23.292;2022-11-15T13:48:54;83.33;;;44.47;;
4468;SDS011;2247;42.666;23.292;2022-11-15T13:51:25;80.27;;;40.30;;
4468;SDS011;2247;42.666;23.292;2022-11-15T13:53:57;88.47;;;42.50;;
4468;SDS011;2247;42.666;23.292;2022-11-15T13:56:26;82.73;;;42.10;;
4468;SDS011;2247;42.666;23.292;2022-11-15T13:58:56;79.73;;;41.03;;
4468;SDS011;2247;42.666;23.292;2022-11-15T14:01:23;77.60;;;39.90;;
4468;SDS011;2247;42.666;23.292;2022-11-15T14:03:59;81.27;;;41.30;;
4468;SDS011;2247;42.666;23.292;2022-11-15T14:06:28;76.73;;;40.93;;
4468;SDS011;2247;42.666;23.292;2022-11-15T14:12:25;80.30;;;41.23;;
4468;SDS011;2247;42.666;23.292;2022-11-15T14:14:55;84.77;;;42.13;;
4468;SDS011;2247;42.666;23.292;2022-11-15T14:17:33;77.70;;;41.20;;
4468;SDS011;2247;42.666;23.292;2022-11-15T14:20:18;89.23;;;43.80;;
4468;SDS011;2247;42.666;23.292;2022-11-15T14:22:53;89.63;;;42.50;;
4468;SDS011;2247;42.666;23.292;2022-11-15T14:25:21;93.87;;;43.30;;
4468;SDS011;2247;42.666;23.292;2022-11-15T14:28:10;88.67;;;42.67;;
4468;SDS011;2247;42.666;23.292;2022-11-15T14:30:42;91.90;;;45.07;;
4468;SDS011;2247;42.666;23.292;2022-11-15T14:33:17;93.80;;;46.00;;
4468;SDS011;2247;42.666;23.292;2022-11-15T14:35:50;96.13;;;45.40;;
4468;SDS011;2247;42.666;23.292;2022-11-15T14:38:17;99.93;;;46.50;;
4468;SDS011;2247;42.666;23.292;2022-11-15T14:40:45;96.77;;;46.50;;
4468;SDS011;2247;42.666;23.292;2022-11-15T14:43:12;89.93;;;45.70;;
4468;SDS011;2247;42.666;23.292;2022-11-15T14:45:40;112.20;;;52.37;;
4468;SDS011;2247;42.666;23.292;2022-11-15T14:48:08;121.70;;;52.30;;
4468;SDS011;2247;42.666;23.292;2022-11-15T14:50:36;100.27;;;51.20;;
4468;SDS011;2247;42.666;23.292;2022-11-15T14:53:04;102.23;;;49.97;;
4468;SDS011;2247;42.666;23.292;2022-11-15T14:55:32;97.57;;;48.87;;
4468;SDS011;2247;42.666;23.292;2022-11-15T14:58:01;105.23;;;50.30;;
4468;SDS011;2247;42.666;23.292;2022-11-15T15:00:29;106.40;;;53.10;;
4468;SDS011;2247;42.666;23.292;2022-11-15T15:02:58;98.33;;;49.70;;
4468;SDS011;2247;42.666;23.292;2022-11-15T15:05:25;97.50;;;48.43;;
4468;SDS011;2247;42.666;23.292;2022-11-15T15:07:57;101.60;;;50.40;;
4468;SDS011;2247;42.666;23.292;2022-11-15T15:10:25;109.37;;;53.87;;
4468;SDS011;2247;42.666;23.292;2022-11-15T15:12:53;113.53;;;53.93;;
4468;SDS011;2247;42.666;23.292;2022-11-15T15:15:21;121.17;;;57.07;;
4468;SDS011;2247;42.666;23.292;2022-11-15T15:17:51;108.47;;;54.43;;
4468;SDS011;2247;42.666;23.292;2022-11-15T15:20:19;119.87;;;56.00;;
4468;SDS011;2247;42.666;23.292;2022-11-15T15:22:47;123.53;;;56.00;;
4468;SDS011;2247;42.666;23.292;2022-11-15T15:25:20;130.37;;;56.73;;
4468;SDS011;2247;42.666;23.292;2022-11-15T15:27:50;129.37;;;59.23;;
4468;SDS011;2247;42.666;23.292;2022-11-15T15:30:17;120.37;;;54.83;;
4468;SDS011;2247;42.666;23.292;2022-11-15T15:32:44;121.93;;;55.87;;